sensor_id;sensor_type;location;lat;lon;timestamp;pressure;altitude;pressure_sealevel;temperature
77355;BMP280;66422;51.202;19.936;2023-09-19T00:02:15;98763.73;;;19.19
77355;BMP280;66422;51.202;19.936;2023-09-19T00:17:35;98755.23;;;18.82
77355;BMP280;66422;51.202;19.936;2023-09-19T00:32:56;98756.26;;;18.85
77355;BMP280;66422;51.202;19.936;2023-09-19T00:48:17;98745.81;;;18.65
77355;BMP280;66422;51.202;19.936;2023-09-19T01:03:38;98734.79;;;18.59
77355;BMP280;66422;51.202;19.936;2023-09-19T01:19:26;98714.80;;;18.74
77355;BMP280;66422;51.202;19.936;2023-09-19T01:34:56;98685.59;;;18.99
77355;BMP280;66422;51.202;19.936;2023-09-19T02:05:52;98663.54;;;19.13
77355;BMP280;66422;51.202;19.936;2023-09-19T02:21:14;98660.44;;;19.17
77355;BMP280;66422;51.202;19.936;2023-09-19T02:36:33;98639.38;;;19.19
77355;BMP280;66422;51.202;19.936;2023-09-19T02:51:53;98637.45;;;19.34
77355;BMP280;66422;51.202;19.936;2023-09-19T03:07:12;98639.48;;;19.33
77355;BMP280;66422;51.202;19.936;2023-09-19T03:22:32;98615.42;;;19.44
77355;BMP280;66422;51.202;19.936;2023-09-19T03:37:52;98609.92;;;19.71
77355;BMP280;66422;51.202;19.936;2023-09-19T03:53:12;98598.67;;;19.46
77355;BMP280;66422;51.202;19.936;2023-09-19T04:08:33;98592.91;;;19.47
77355;BMP280;66422;51.202;19.936;2023-09-19T04:23:52;98591.60;;;19.33
77355;BMP280;66422;51.202;19.936;2023-09-19T04:39:12;98578.88;;;19.41
77355;BMP280;66422;51.202;19.936;2023-09-19T04:54:32;98575.66;;;19.35
77355;BMP280;66422;51.202;19.936;2023-09-19T05:09:53;98566.46;;;19.61
77355;BMP280;66422;51.202;19.936;2023-09-19T05:25:13;98562.70;;;19.45
77355;BMP280;66422;51.202;19.936;2023-09-19T05:40:36;98570.20;;;19.83
77355;BMP280;66422;51.202;19.936;2023-09-19T05:55:58;98574.45;;;19.86
77355;BMP280;66422;51.202;19.936;2023-09-19T06:11:18;98600.56;;;20.29
77355;BMP280;66422;51.202;19.936;2023-09-19T06:26:39;98628.55;;;20.36
77355;BMP280;66422;51.202;19.936;2023-09-19T06:41:59;98624.10;;;20.49
77355;BMP280;66422;51.202;19.936;2023-09-19T06:57:20;98639.97;;;20.74
77355;BMP280;66422;51.202;19.936;2023-09-19T07:12:40;98655.58;;;20.99
77355;BMP280;66422;51.202;19.936;2023-09-19T07:28:01;98667.02;;;20.89
77355;BMP280;66422;51.202;19.936;2023-09-19T07:43:22;98687.09;;;20.55
77355;BMP280;66422;51.202;19.936;2023-09-19T07:58:42;98689.95;;;21.04
77355;BMP280;66422;51.202;19.936;2023-09-19T08:14:05;98696.66;;;21.18
77355;BMP280;66422;51.202;19.936;2023-09-19T08:29:28;98712.43;;;21.21
77355;BMP280;66422;51.202;19.936;2023-09-19T08:44:49;98727.38;;;20.77
77355;BMP280;66422;51.202;19.936;2023-09-19T09:00:09;98753.21;;;20.66
77355;BMP280;66422;51.202;19.936;2023-09-19T09:15:30;98767.45;;;21.10
77355;BMP280;66422;51.202;19.936;2023-09-19T09:30:51;98770.66;;;21.17
77355;BMP280;66422;51.202;19.936;2023-09-19T09:46:16;98791.36;;;20.79
77355;BMP280;66422;51.202;19.936;2023-09-19T10:01:49;98804.18;;;21.37
77355;BMP280;66422;51.202;19.936;2023-09-19T10:17:10;98816.23;;;21.33
77355;BMP280;66422;51.202;19.936;2023-09-19T10:32:31;98818.73;;;21.38
77355;BMP280;66422;51.202;19.936;2023-09-19T10:47:54;98829.66;;;21.42
77355;BMP280;66422;51.202;19.936;2023-09-19T11:03:17;98842.06;;;21.62
77355;BMP280;66422;51.202;19.936;2023-09-19T11:49:55;98857.16;;;21.55
77355;BMP280;66422;51.202;19.936;2023-09-19T12:05:15;98854.17;;;21.86
77355;BMP280;66422;51.202;19.936;2023-09-19T12:20:43;98847.60;;;22.27
77355;BMP280;66422;51.202;19.936;2023-09-19T12:36:24;98868.70;;;22.06
77355;BMP280;66422;51.202;19.936;2023-09-19T12:51:54;98879.11;;;22.90
77355;BMP280;66422;51.202;19.936;2023-09-19T13:07:44;98896.66;;;22.74
77355;BMP280;66422;51.202;19.936;2023-09-19T13:23:26;98905.36;;;21.90
77355;BMP280;66422;51.202;19.936;2023-09-19T13:38:46;98927.04;;;21.69
77355;BMP280;66422;51.202;19.936;2023-09-19T13:54:08;98935.62;;;22.13
77355;BMP280;66422;51.202;19.936;2023-09-19T14:09:28;98935.27;;;22.41
77355;BMP280;66422;51.202;19.936;2023-09-19T14:24:48;98936.10;;;22.42
77355;BMP280;66422;51.202;19.936;2023-09-19T14:40:08;98926.41;;;22.57
77355;BMP280;66422;51.202;19.936;2023-09-19T14:55:29;98939.05;;;23.25
77355;BMP280;66422;51.202;19.936;2023-09-19T15:10:53;98934.26;;;23.02
77355;BMP280;66422;51.202;19.936;2023-09-19T15:26:14;98920.52;;;23.42
77355;BMP280;66422;51.202;19.936;2023-09-19T15:41:41;98935.14;;;23.06
77355;BMP280;66422;51.202;19.936;2023-09-19T15:57:01;98946.64;;;22.78
77355;BMP280;66422;51.202;19.936;2023-09-19T16:12:20;98964.02;;;22.44
77355;BMP280;66422;51.202;19.936;2023-09-19T16:27:40;98982.16;;;22.36
77355;BMP280;66422;51.202;19.936;2023-09-19T16:42:59;99005.06;;;21.98
77355;BMP280;66422;51.202;19.936;2023-09-19T16:58:20;99015.31;;;21.46
77355;BMP280;66422;51.202;19.936;2023-09-19T17:13:41;99024.23;;;21.20
77355;BMP280;66422;51.202;19.936;2023-09-19T17:29:01;99048.86;;;20.40
77355;BMP280;66422;51.202;19.936;2023-09-19T17:44:21;99053.96;;;19.68
77355;BMP280;66422;51.202;19.936;2023-09-19T17:59:41;99065.52;;;19.04
77355;BMP280;66422;51.202;19.936;2023-09-19T18:15:01;99083.11;;;18.14
77355;BMP280;66422;51.202;19.936;2023-09-19T18:30:20;99095.54;;;17.16
77355;BMP280;66422;51.202;19.936;2023-09-19T18:45:40;99115.16;;;17.01
77355;BMP280;66422;51.202;19.936;2023-09-19T19:01:11;99122.14;;;16.57
77355;BMP280;66422;51.202;19.936;2023-09-19T19:16:31;99130.01;;;16.10
77355;BMP280;66422;51.202;19.936;2023-09-19T19:31:51;99143.65;;;15.62
77355;BMP280;66422;51.202;19.936;2023-09-19T19:47:12;99145.77;;;15.72
77355;BMP280;66422;51.202;19.936;2023-09-19T20:02:33;99144.62;;;15.59
77355;BMP280;66422;51.202;19.936;2023-09-19T20:17:54;99155.30;;;15.23
77355;BMP280;66422;51.202;19.936;2023-09-19T20:33:18;99166.51;;;14.81
77355;BMP280;66422;51.202;19.936;2023-09-19T20:48:38;99186.86;;;15.08
77355;BMP280;66422;51.202;19.936;2023-09-19T21:03:59;99196.70;;;14.89
77355;BMP280;66422;51.202;19.936;2023-09-19T21:19:18;99190.04;;;14.65
77355;BMP280;66422;51.202;19.936;2023-09-19T21:34:38;99197.95;;;15.07
77355;BMP280;66422;51.202;19.936;2023-09-19T21:49:58;99200.70;;;15.14
77355;BMP280;66422;51.202;19.936;2023-09-19T22:05:18;99201.41;;;14.85
77355;BMP280;66422;51.202;19.936;2023-09-19T22:20:42;99196.84;;;14.65
77355;BMP280;66422;51.202;19.936;2023-09-19T22:36:06;99194.45;;;14.41
77355;BMP280;66422;51.202;19.936;2023-09-19T22:51:26;99197.42;;;14.41
77355;BMP280;66422;51.202;19.936;2023-09-19T23:06:55;99195.54;;;14.65
77355;BMP280;66422;51.202;19.936;2023-09-19T23:22:19;99217.85;;;14.73
77355;BMP280;66422;51.202;19.936;2023-09-19T23:37:39;99220.02;;;14.58
77355;BMP280;66422;51.202;19.936;2023-09-19T23:52:59;99223.50;;;14.33
